Flight Track Log - Related Links

Times and Time Zones

All times are in EST time to prevent confusion due to time zone crossing. See the N210PM flight status page for this flight to view local times or setup timezone preferences in your user account.

Time Position Orientation Groundspeed Altitude Reporting Facility
EST Latitude Longitude Course Direction KTS MPH feet Rate Location/Type
Sat 10:24:07 PM 40.9925 -98.2697 63° Northeast 170 196 5,300  Level Minneapolis Center
Sat 10:25:00 PM 40.9282 -97.7548 95° East  Level Estimated
Sat 10:25:08 PM 40.9869 -98.1997 96° East 189 217 8,300  Level Minneapolis Center
Sat 10:26:00 PM 40.9210 -97.6625 96° East  Level FlightAware Approximate
Sat 10:26:09 PM 40.9789 -98.1106 97° East 240 276 9,000  Level Minneapolis Center
Sat 10:27:00 PM 40.9141 -97.5701 90° East  Level Estimated
Sat 10:27:11 PM 40.9689 -98.0067 97° East 279 321 9,000  Level Minneapolis Center
Sat 10:28:00 PM 40.9072 -97.4777 90° East  Level Estimated
Sat 10:28:12 PM 40.9597 -97.9006 96° East 289 333 9,000  Level Minneapolis Center
Sat 10:29:13 PM 40.9494 -97.7936 97° East 292 336 9,000  Level Minneapolis Center
Sat 10:29:55 PM 40.9197 -97.7019 113° Southeast 292 336 9,000  Level Minneapolis Center
Sat 10:30:14 PM 40.9406 -97.6881 27° Northeast 291 335 9,000  Level Minneapolis Center
Sat 10:30:37 PM 40.9142 -97.6308 121° Southeast 292 336 9,000  Level Minneapolis Center
Sat 10:31:15 PM 40.9286 -97.5594 75° East 293 337 9,000  Level Minneapolis Center
Sat 10:31:38 PM 40.9039 -97.5161 127° Southeast 294 338 9,000  Level Minneapolis Center
Sat 10:32:16 PM 40.9178 -97.4528 74° East 292 336 9,000  Level Minneapolis Center
Sat 10:32:38 PM 40.8964 -97.4094 123° Southeast 294 338 9,000  Level Minneapolis Center
Sat 10:33:17 PM 40.9081 -97.3489 76° East 294 338 9,000  Level Minneapolis Center
Sat 10:33:39 PM 40.8864 -97.3028 122° Southeast 294 338 9,000 -774 Level Minneapolis Center
Sat 10:34:19 PM 40.8953 -97.2436 79° East 292 336 8,200 -1,377 Descending Minneapolis Center
Sat 10:34:40 PM 40.8683 -97.2028 131° Southeast 286 329 7,600 -1,475 Descending Minneapolis Center
Sat 10:35:20 PM 40.8728 -97.1442 84° East 285 328 6,700 -1,500 Descending Minneapolis Center
Sat 10:35:40 PM 40.8478 -97.0947 124° Southeast 277 319 6,100 -1,377 Descending Minneapolis Center
Sat 10:36:21 PM 40.8525 -97.0472 82° East 278 320 5,300 -1,377 Descending Minneapolis Center
Sat 10:36:41 PM 40.8297 -97.0000 123° Southeast 268 308 4,700 -1,377 Descending Minneapolis Center
Sat 10:37:22 PM 40.8347 -96.9544 82° East 268 308 3,900 -1,400 Descending Minneapolis Center
Sat 10:37:41 PM 40.8142 -96.9081 120° Southeast 258 297 3,300 -857 Descending Minneapolis Center
Sat 10:38:25 PM 40.8183 -96.8642 83° East 262 302 3,000 -590 Descending Minneapolis Center
Sat 10:38:42 PM 40.8008 -96.8242 120° Southeast 196 226 2,700 -590 Descending Minneapolis Center
Sat 10:39:26 PM 40.8075 -96.7900 76° East 203 234 2,400 -393 Descending Minneapolis Center
Sat 10:39:43 PM 40.7956 -96.7697 128° Southeast 131 151 2,300 -689 Descending Minneapolis Center
Sat 10:40:27 PM 40.8175 -96.7500 34° Northeast 148 170 1,700 -787 Descending Minneapolis Center
Sat 10:40:44 PM 40.8172 -96.7453 94° East 96 110 1,500 -706 Descending Minneapolis Center
Sat 10:42:00 PM 40.8500 -96.7500 North  Level FlightAware Approximate
Sat 10:49:00 PM 40.8509 -96.7591 North  Level Estimated

Login

Don't have an account? Register now (free) for customized features, flight alerts, and more!